sensor_id;sensor_type;location;lat;lon;timestamp;pressure;altitude;pressure_sealevel;temperature;humidity
6413;BME280;3239;48.714;9.472;2023-04-19T00:00:42;98888.47;;;10.04;100.00
6413;BME280;3239;48.714;9.472;2023-04-19T00:03:09;98880.72;;;10.13;100.00
6413;BME280;3239;48.714;9.472;2023-04-19T00:05:35;98885.47;;;10.07;100.00
6413;BME280;3239;48.714;9.472;2023-04-19T00:08:05;98881.97;;;10.01;100.00
6413;BME280;3239;48.714;9.472;2023-04-19T00:10:31;98883.47;;;10.08;100.00
6413;BME280;3239;48.714;9.472;2023-04-19T00:12:57;98875.78;;;10.06;100.00
6413;BME280;3239;48.714;9.472;2023-04-19T00:15:23;98882.72;;;10.02;100.00
6413;BME280;3239;48.714;9.472;2023-04-19T00:17:49;98877.75;;;10.11;100.00
6413;BME280;3239;48.714;9.472;2023-04-19T00:20:14;98878.25;;;10.04;100.00
6413;BME280;3239;48.714;9.472;2023-04-19T00:22:40;98877.25;;;10.02;100.00
6413;BME280;3239;48.714;9.472;2023-04-19T00:25:06;98870.53;;;10.03;100.00
6413;BME280;3239;48.714;9.472;2023-04-19T00:27:32;98881.00;;;10.04;100.00
6413;BME280;3239;48.714;9.472;2023-04-19T00:29:58;98870.03;;;10.04;100.00
6413;BME280;3239;48.714;9.472;2023-04-19T00:32:24;98873.28;;;9.92;100.00
6413;BME280;3239;48.714;9.472;2023-04-19T00:34:50;98866.31;;;9.91;100.00
6413;BME280;3239;48.714;9.472;2023-04-19T00:37:16;98875.03;;;9.89;100.00
6413;BME280;3239;48.714;9.472;2023-04-19T00:39:42;98872.06;;;9.93;100.00
6413;BME280;3239;48.714;9.472;2023-04-19T00:42:07;98867.09;;;9.91;100.00
6413;BME280;3239;48.714;9.472;2023-04-19T00:44:33;98864.84;;;9.90;100.00
6413;BME280;3239;48.714;9.472;2023-04-19T00:46:59;98866.59;;;9.93;100.00
6413;BME280;3239;48.714;9.472;2023-04-19T00:49:27;98869.53;;;10.00;100.00
6413;BME280;3239;48.714;9.472;2023-04-19T00:51:54;98856.34;;;9.99;100.00
6413;BME280;3239;48.714;9.472;2023-04-19T00:54:20;98859.41;;;9.84;100.00
6413;BME280;3239;48.714;9.472;2023-04-19T00:56:45;98862.88;;;9.85;100.00
6413;BME280;3239;48.714;9.472;2023-04-19T00:59:13;98857.16;;;9.83;100.00
6413;BME280;3239;48.714;9.472;2023-04-19T01:01:39;98857.16;;;9.77;100.00
6413;BME280;3239;48.714;9.472;2023-04-19T01:04:06;98860.66;;;9.78;100.00
6413;BME280;3239;48.714;9.472;2023-04-19T01:06:34;98861.16;;;9.82;100.00
6413;BME280;3239;48.714;9.472;2023-04-19T01:09:00;98850.69;;;9.75;100.00
6413;BME280;3239;48.714;9.472;2023-04-19T01:11:27;98857.91;;;9.78;100.00
6413;BME280;3239;48.714;9.472;2023-04-19T01:13:55;98859.41;;;9.79;100.00
6413;BME280;3239;48.714;9.472;2023-04-19T01:16:21;98847.72;;;9.73;100.00
6413;BME280;3239;48.714;9.472;2023-04-19T01:18:47;98856.19;;;9.69;100.00
6413;BME280;3239;48.714;9.472;2023-04-19T01:21:13;98851.72;;;9.66;100.00
6413;BME280;3239;48.714;9.472;2023-04-19T01:23:38;98849.47;;;9.65;100.00
6413;BME280;3239;48.714;9.472;2023-04-19T01:26:05;98856.94;;;9.75;100.00
6413;BME280;3239;48.714;9.472;2023-04-19T01:28:31;98855.44;;;9.69;100.00
6413;BME280;3239;48.714;9.472;2023-04-19T01:30:57;98857.91;;;9.72;100.00
6413;BME280;3239;48.714;9.472;2023-04-19T01:33:23;98846.75;;;9.70;100.00
6413;BME280;3239;48.714;9.472;2023-04-19T01:35:49;98850.69;;;9.75;100.00
6413;BME280;3239;48.714;9.472;2023-04-19T01:38:16;98848.22;;;9.71;100.00
6413;BME280;3239;48.714;9.472;2023-04-19T01:40:42;98850.47;;;9.73;100.00
6413;BME280;3239;48.714;9.472;2023-04-19T01:43:14;98842.50;;;9.64;100.00
6413;BME280;3239;48.714;9.472;2023-04-19T01:45:40;98841.78;;;9.63;100.00
6413;BME280;3239;48.714;9.472;2023-04-19T01:48:06;98844.00;;;9.65;100.00
6413;BME280;3239;48.714;9.472;2023-04-19T01:50:32;98849.75;;;9.61;100.00
6413;BME280;3239;48.714;9.472;2023-04-19T01:52:58;98836.81;;;9.56;100.00
6413;BME280;3239;48.714;9.472;2023-04-19T01:55:24;98844.53;;;9.63;100.00
6413;BME280;3239;48.714;9.472;2023-04-19T01:57:50;98848.47;;;9.62;100.00
6413;BME280;3239;48.714;9.472;2023-04-19T02:00:19;98844.00;;;9.65;100.00
6413;BME280;3239;48.714;9.472;2023-04-19T02:02:45;98841.56;;;9.56;100.00
6413;BME280;3239;48.714;9.472;2023-04-19T02:05:11;98840.81;;;9.55;100.00
6413;BME280;3239;48.714;9.472;2023-04-19T02:07:37;98835.09;;;9.48;100.00
6413;BME280;3239;48.714;9.472;2023-04-19T02:10:05;98841.06;;;9.52;100.00
6413;BME280;3239;48.714;9.472;2023-04-19T02:12:32;98835.59;;;9.46;100.00
6413;BME280;3239;48.714;9.472;2023-04-19T02:14:59;98839.06;;;9.41;100.00
6413;BME280;3239;48.714;9.472;2023-04-19T02:17:28;98840.81;;;9.39;100.00
6413;BME280;3239;48.714;9.472;2023-04-19T02:19:54;98842.56;;;9.47;100.00
6413;BME280;3239;48.714;9.472;2023-04-19T02:22:20;98830.88;;;9.47;100.00
6413;BME280;3239;48.714;9.472;2023-04-19T02:24:51;98829.13;;;9.44;100.00
6413;BME280;3239;48.714;9.472;2023-04-19T02:27:17;98830.38;;;9.43;100.00
6413;BME280;3239;48.714;9.472;2023-04-19T02:29:42;98830.13;;;9.41;100.00
6413;BME280;3239;48.714;9.472;2023-04-19T02:32:11;98826.41;;;9.38;100.00
6413;BME280;3239;48.714;9.472;2023-04-19T02:34:37;98827.63;;;9.43;100.00
6413;BME280;3239;48.714;9.472;2023-04-19T02:37:02;98827.16;;;9.39;100.00
6413;BME280;3239;48.714;9.472;2023-04-19T02:39:28;98825.91;;;9.34;100.00
6413;BME280;3239;48.714;9.472;2023-04-19T02:41:55;98824.44;;;9.33;100.00
6413;BME280;3239;48.714;9.472;2023-04-19T02:44:21;98825.16;;;9.34;100.00
6413;BME280;3239;48.714;9.472;2023-04-19T02:46:51;98823.94;;;9.29;100.00
6413;BME280;3239;48.714;9.472;2023-04-19T02:49:18;98818.47;;;9.29;100.00
6413;BME280;3239;48.714;9.472;2023-04-19T02:51:43;98825.19;;;9.12;100.00
6413;BME280;3239;48.714;9.472;2023-04-19T02:54:10;98819.47;;;9.10;100.00
6413;BME280;3239;48.714;9.472;2023-04-19T02:56:36;98829.16;;;9.11;100.00
6413;BME280;3239;48.714;9.472;2023-04-19T02:59:03;98825.44;;;9.08;100.00
6413;BME280;3239;48.714;9.472;2023-04-19T03:01:30;98816.75;;;9.04;100.00
6413;BME280;3239;48.714;9.472;2023-04-19T03:03:56;98819.22;;;8.97;100.00
6413;BME280;3239;48.714;9.472;2023-04-19T03:06:22;98818.25;;;8.89;100.00
6413;BME280;3239;48.714;9.472;2023-04-19T03:08:48;98818.22;;;8.83;100.00
6413;BME280;3239;48.714;9.472;2023-04-19T03:11:16;98822.22;;;8.82;100.00
6413;BME280;3239;48.714;9.472;2023-04-19T03:13:42;98823.19;;;8.74;100.00
6413;BME280;3239;48.714;9.472;2023-04-19T03:16:08;98829.91;;;8.73;100.00
6413;BME280;3239;48.714;9.472;2023-04-19T03:18:34;98833.13;;;8.66;100.00
6413;BME280;3239;48.714;9.472;2023-04-19T03:21:01;98829.41;;;8.63;100.00
6413;BME280;3239;48.714;9.472;2023-04-19T03:23:28;98832.84;;;8.53;100.00
6413;BME280;3239;48.714;9.472;2023-04-19T03:25:54;98836.59;;;8.50;100.00
6413;BME280;3239;48.714;9.472;2023-04-19T03:28:19;98846.50;;;8.53;100.00
6413;BME280;3239;48.714;9.472;2023-04-19T03:30:45;98844.00;;;8.44;100.00
6413;BME280;3239;48.714;9.472;2023-04-19T03:33:11;98838.25;;;8.36;100.00
6413;BME280;3239;48.714;9.472;2023-04-19T03:35:37;98830.84;;;8.31;100.00
6413;BME280;3239;48.714;9.472;2023-04-19T03:38:03;98840.22;;;8.30;100.00
6413;BME280;3239;48.714;9.472;2023-04-19T03:40:32;98827.56;;;8.22;100.00
6413;BME280;3239;48.714;9.472;2023-04-19T03:42:57;98842.22;;;8.24;100.00
6413;BME280;3239;48.714;9.472;2023-04-19T03:45:23;98840.22;;;8.25;100.00
6413;BME280;3239;48.714;9.472;2023-04-19T03:47:49;98839.47;;;8.24;100.00
6413;BME280;3239;48.714;9.472;2023-04-19T03:50:15;98845.94;;;8.27;100.00
6413;BME280;3239;48.714;9.472;2023-04-19T03:52:40;98844.22;;;8.29;100.00
6413;BME280;3239;48.714;9.472;2023-04-19T03:55:07;98837.75;;;8.21;100.00
6413;BME280;3239;48.714;9.472;2023-04-19T03:57:33;98850.66;;;8.26;100.00
6413;BME280;3239;48.714;9.472;2023-04-19T03:59:59;98842.66;;;8.17;100.00
6413;BME280;3239;48.714;9.472;2023-04-19T04:02:25;98846.34;;;8.14;100.00
6413;BME280;3239;48.714;9.472;2023-04-19T04:04:54;98842.22;;;8.24;100.00
6413;BME280;3239;48.714;9.472;2023-04-19T04:07:20;98847.84;;;8.10;100.00
6413;BME280;3239;48.714;9.472;2023-04-19T04:09:48;98854.28;;;8.07;100.00
6413;BME280;3239;48.714;9.472;2023-04-19T04:12:14;98858.50;;;8.08;100.00
6413;BME280;3239;48.714;9.472;2023-04-19T04:14:39;98862.44;;;8.01;100.00
6413;BME280;3239;48.714;9.472;2023-04-19T04:17:05;98862.69;;;7.98;100.00
6413;BME280;3239;48.714;9.472;2023-04-19T04:19:31;98867.13;;;7.95;100.00
6413;BME280;3239;48.714;9.472;2023-04-19T04:21:57;98870.34;;;7.94;100.00
6413;BME280;3239;48.714;9.472;2023-04-19T04:24:22;98876.78;;;7.91;100.00
6413;BME280;3239;48.714;9.472;2023-04-19T04:26:48;98874.03;;;7.91;100.00
6413;BME280;3239;48.714;9.472;2023-04-19T04:29:14;98876.78;;;7.91;100.00
6413;BME280;3239;48.714;9.472;2023-04-19T04:31:41;98891.22;;;8.02;100.00
6413;BME280;3239;48.714;9.472;2023-04-19T04:34:07;98889.97;;;7.98;100.00
6413;BME280;3239;48.714;9.472;2023-04-19T04:36:34;98885.47;;;7.95;100.00
6413;BME280;3239;48.714;9.472;2023-04-19T04:39:03;98885.22;;;7.93;100.00
6413;BME280;3239;48.714;9.472;2023-04-19T04:41:28;98882.50;;;7.93;100.00
6413;BME280;3239;48.714;9.472;2023-04-19T04:43:57;98886.47;;;7.92;100.00
6413;BME280;3239;48.714;9.472;2023-04-19T04:46:23;98890.22;;;7.94;100.00
6413;BME280;3239;48.714;9.472;2023-04-19T04:48:51;98894.91;;;7.99;100.00
6413;BME280;3239;48.714;9.472;2023-04-19T04:51:16;98892.72;;;8.03;100.00
6413;BME280;3239;48.714;9.472;2023-04-19T04:53:42;98885.81;;;8.08;100.00
6413;BME280;3239;48.714;9.472;2023-04-19T04:56:08;98891.47;;;8.04;100.00
6413;BME280;3239;48.714;9.472;2023-04-19T04:58:34;98884.81;;;8.05;100.00
6413;BME280;3239;48.714;9.472;2023-04-19T05:00:59;98902.44;;;8.10;100.00
6413;BME280;3239;48.714;9.472;2023-04-19T05:03:25;98896.72;;;8.13;100.00
6413;BME280;3239;48.714;9.472;2023-04-19T05:05:54;98891.81;;;8.23;100.00
6413;BME280;3239;48.714;9.472;2023-04-19T05:08:20;98886.91;;;8.32;100.00
6413;BME280;3239;48.714;9.472;2023-04-19T05:10:46;98884.72;;;8.42;100.00
6413;BME280;3239;48.714;9.472;2023-04-19T05:13:12;98879.53;;;8.49;100.00
6413;BME280;3239;48.714;9.472;2023-04-19T05:15:38;98877.03;;;8.46;100.00
6413;BME280;3239;48.714;9.472;2023-04-19T05:18:04;98873.56;;;8.56;100.00
6413;BME280;3239;48.714;9.472;2023-04-19T05:20:30;98876.53;;;8.53;100.00
6413;BME280;3239;48.714;9.472;2023-04-19T05:22:59;98873.59;;;8.62;100.00
6413;BME280;3239;48.714;9.472;2023-04-19T05:25:26;98866.91;;;8.85;100.00
6413;BME280;3239;48.714;9.472;2023-04-19T05:27:52;98863.69;;;8.86;100.00
6413;BME280;3239;48.714;9.472;2023-04-19T05:30:17;98857.50;;;8.91;100.00
6413;BME280;3239;48.714;9.472;2023-04-19T05:32:43;98846.31;;;8.84;100.00
6413;BME280;3239;48.714;9.472;2023-04-19T05:35:10;98842.09;;;8.94;100.00
6413;BME280;3239;48.714;9.472;2023-04-19T05:37:36;98839.09;;;8.92;100.00
6413;BME280;3239;48.714;9.472;2023-04-19T05:40:04;98829.69;;;9.04;100.00
6413;BME280;3239;48.714;9.472;2023-04-19T05:42:30;98826.44;;;9.11;100.00
6413;BME280;3239;48.714;9.472;2023-04-19T05:44:56;98832.41;;;9.26;100.00
6413;BME280;3239;48.714;9.472;2023-04-19T05:47:22;98820.97;;;9.16;100.00
6413;BME280;3239;48.714;9.472;2023-04-19T05:49:47;98814.47;;;9.30;100.00
6413;BME280;3239;48.714;9.472;2023-04-19T05:52:13;98809.28;;;9.27;100.00
6413;BME280;3239;48.714;9.472;2023-04-19T05:54:39;98804.50;;;9.44;100.00
6413;BME280;3239;48.714;9.472;2023-04-19T05:57:05;98800.09;;;9.30;100.00
6413;BME280;3239;48.714;9.472;2023-04-19T05:59:31;98793.63;;;9.16;100.00
6413;BME280;3239;48.714;9.472;2023-04-19T06:01:57;98792.66;;;9.14;100.00
6413;BME280;3239;48.714;9.472;2023-04-19T06:04:22;98795.09;;;9.34;100.00
6413;BME280;3239;48.714;9.472;2023-04-19T06:06:48;98786.38;;;9.35;100.00
6413;BME280;3239;48.714;9.472;2023-04-19T06:09:14;98786.88;;;9.34;100.00
6413;BME280;3239;48.714;9.472;2023-04-19T06:11:40;98784.44;;;9.25;100.00
6413;BME280;3239;48.714;9.472;2023-04-19T06:14:06;98782.94;;;9.13;100.00
6413;BME280;3239;48.714;9.472;2023-04-19T06:16:32;98788.63;;;9.31;100.00
6413;BME280;3239;48.714;9.472;2023-04-19T06:18:57;98784.13;;;9.34;100.00
6413;BME280;3239;48.714;9.472;2023-04-19T06:21:23;98788.63;;;9.37;100.00
6413;BME280;3239;48.714;9.472;2023-04-19T06:23:49;98788.84;;;9.44;100.00
6413;BME280;3239;48.714;9.472;2023-04-19T06:26:14;98785.88;;;9.42;100.00
6413;BME280;3239;48.714;9.472;2023-04-19T06:28:40;98773.09;;;9.72;100.00
6413;BME280;3239;48.714;9.472;2023-04-19T06:31:06;98766.19;;;9.66;100.00
6413;BME280;3239;48.714;9.472;2023-04-19T06:33:32;98759.16;;;9.76;100.00
6413;BME280;3239;48.714;9.472;2023-04-19T06:35:57;98760.44;;;9.69;100.00
6413;BME280;3239;48.714;9.472;2023-04-19T06:38:23;98762.16;;;9.72;100.00
6413;BME280;3239;48.714;9.472;2023-04-19T06:40:49;98758.69;;;9.72;100.00
6413;BME280;3239;48.714;9.472;2023-04-19T06:43:15;98754.69;;;9.73;100.00
6413;BME280;3239;48.714;9.472;2023-04-19T06:45:40;98753.72;;;9.70;100.00
6413;BME280;3239;48.714;9.472;2023-04-19T06:48:06;98763.09;;;9.86;100.00
6413;BME280;3239;48.714;9.472;2023-04-19T06:50:32;98753.94;;;9.78;100.00
6413;BME280;3239;48.714;9.472;2023-04-19T06:52:57;98751.25;;;9.61;100.00
6413;BME280;3239;48.714;9.472;2023-04-19T06:55:23;98749.75;;;9.66;100.00
6413;BME280;3239;48.714;9.472;2023-04-19T06:57:49;98753.00;;;9.64;100.00
6413;BME280;3239;48.714;9.472;2023-04-19T07:00:15;98746.50;;;9.67;100.00
6413;BME280;3239;48.714;9.472;2023-04-19T07:02:41;98751.31;;;10.02;100.00
6413;BME280;3239;48.714;9.472;2023-04-19T07:05:07;98751.16;;;9.89;100.00
6413;BME280;3239;48.714;9.472;2023-04-19T07:07:33;98762.00;;;10.05;100.00
6413;BME280;3239;48.714;9.472;2023-04-19T07:09:58;98752.25;;;10.15;100.00
6413;BME280;3239;48.714;9.472;2023-04-19T07:12:24;98749.31;;;10.08;100.00
6413;BME280;3239;48.714;9.472;2023-04-19T07:14:50;98735.84;;;10.50;100.00
6413;BME280;3239;48.714;9.472;2023-04-19T07:17:22;98723.22;;;10.42;100.00
6413;BME280;3239;48.714;9.472;2023-04-19T07:19:48;98722.00;;;10.37;100.00
6413;BME280;3239;48.714;9.472;2023-04-19T07:22:14;98706.00;;;10.47;100.00
6413;BME280;3239;48.714;9.472;2023-04-19T07:24:40;98706.03;;;10.41;100.00
6413;BME280;3239;48.714;9.472;2023-04-19T07:27:07;98708.38;;;10.61;100.00
6413;BME280;3239;48.714;9.472;2023-04-19T07:29:36;98697.88;;;10.65;100.00
6413;BME280;3239;48.714;9.472;2023-04-19T07:32:02;98696.16;;;10.62;100.00
6413;BME280;3239;48.714;9.472;2023-04-19T07:34:28;98692.56;;;10.73;100.00
6413;BME280;3239;48.714;9.472;2023-04-19T07:36:54;98692.88;;;10.93;100.00
6413;BME280;3239;48.714;9.472;2023-04-19T07:39:20;98681.13;;;11.22;100.00
6413;BME280;3239;48.714;9.472;2023-04-19T07:41:46;98675.63;;;11.22;100.00
6413;BME280;3239;48.714;9.472;2023-04-19T07:44:11;98663.13;;;11.45;100.00
6413;BME280;3239;48.714;9.472;2023-04-19T07:46:38;98660.06;;;11.49;100.00
6413;BME280;3239;48.714;9.472;2023-04-19T07:49:04;98662.31;;;11.08;100.00
6413;BME280;3239;48.714;9.472;2023-04-19T07:51:29;98655.84;;;11.29;100.00
6413;BME280;3239;48.714;9.472;2023-04-19T07:53:56;98650.16;;;11.46;100.00
6413;BME280;3239;48.714;9.472;2023-04-19T07:56:22;98651.56;;;11.52;100.00
6413;BME280;3239;48.714;9.472;2023-04-19T07:58:48;98642.41;;;11.26;100.00
6413;BME280;3239;48.714;9.472;2023-04-19T08:01:13;98635.88;;;11.29;100.00
6413;BME280;3239;48.714;9.472;2023-04-19T08:03:39;98644.25;;;11.60;100.00
6413;BME280;3239;48.714;9.472;2023-04-19T08:06:06;98637.56;;;11.74;100.00
6413;BME280;3239;48.714;9.472;2023-04-19T08:08:34;98641.09;;;12.06;100.00
6413;BME280;3239;48.714;9.472;2023-04-19T08:11:01;98631.75;;;11.96;100.00
6413;BME280;3239;48.714;9.472;2023-04-19T08:13:28;98634.50;;;11.96;100.00
6413;BME280;3239;48.714;9.472;2023-04-19T08:15:54;98625.88;;;12.05;100.00
6413;BME280;3239;48.714;9.472;2023-04-19T08:18:19;98626.88;;;11.71;100.00
6413;BME280;3239;48.714;9.472;2023-04-19T08:20:46;98628.91;;;11.70;100.00
6413;BME280;3239;48.714;9.472;2023-04-19T08:23:13;98628.25;;;11.40;100.00
6413;BME280;3239;48.714;9.472;2023-04-19T08:25:39;98626.84;;;11.52;100.00
6413;BME280;3239;48.714;9.472;2023-04-19T08:28:05;98628.22;;;11.46;100.00
6413;BME280;3239;48.714;9.472;2023-04-19T08:30:31;98632.91;;;11.69;100.00
6413;BME280;3239;48.714;9.472;2023-04-19T08:32:57;98620.72;;;11.65;100.00
6413;BME280;3239;48.714;9.472;2023-04-19T08:35:23;98628.56;;;11.55;100.00
6413;BME280;3239;48.714;9.472;2023-04-19T08:37:49;98627.94;;;11.68;100.00
6413;BME280;3239;48.714;9.472;2023-04-19T08:40:16;98633.84;;;11.90;100.00
6413;BME280;3239;48.714;9.472;2023-04-19T08:42:42;98618.72;;;11.84;100.00
6413;BME280;3239;48.714;9.472;2023-04-19T08:45:08;98614.50;;;11.83;100.00
6413;BME280;3239;48.714;9.472;2023-04-19T08:47:39;98619.59;;;11.55;100.00
6413;BME280;3239;48.714;9.472;2023-04-19T08:50:07;98626.03;;;11.57;100.00
6413;BME280;3239;48.714;9.472;2023-04-19T08:52:35;98620.56;;;11.76;100.00
6413;BME280;3239;48.714;9.472;2023-04-19T08:55:06;98620.88;;;11.72;100.00
6413;BME280;3239;48.714;9.472;2023-04-19T08:57:33;98614.13;;;11.73;100.00
6413;BME280;3239;48.714;9.472;2023-04-19T09:00:00;98614.25;;;11.81;100.00
6413;BME280;3239;48.714;9.472;2023-04-19T09:02:27;98612.28;;;11.63;100.00
6413;BME280;3239;48.714;9.472;2023-04-19T09:04:52;98605.88;;;11.55;100.00
6413;BME280;3239;48.714;9.472;2023-04-19T09:07:26;98600.31;;;11.79;100.00
6413;BME280;3239;48.714;9.472;2023-04-19T09:10:17;98589.81;;;11.96;100.00
6413;BME280;3239;48.714;9.472;2023-04-19T09:12:58;98583.88;;;11.92;100.00
6413;BME280;3239;48.714;9.472;2023-04-19T09:15:39;98587.59;;;11.63;100.00
6413;BME280;3239;48.714;9.472;2023-04-19T09:18:08;98580.41;;;11.91;100.00
6413;BME280;3239;48.714;9.472;2023-04-19T09:20:42;98583.59;;;12.40;100.00
6413;BME280;3239;48.714;9.472;2023-04-19T09:23:15;98578.75;;;12.59;100.00
6413;BME280;3239;48.714;9.472;2023-04-19T09:25:55;98569.25;;;13.12;100.00
6413;BME280;3239;48.714;9.472;2023-04-19T09:28:23;98553.09;;;14.16;100.00
6413;BME280;3239;48.714;9.472;2023-04-19T09:30:49;98536.72;;;14.11;100.00
6413;BME280;3239;48.714;9.472;2023-04-19T09:33:32;98525.69;;;13.90;100.00
6413;BME280;3239;48.714;9.472;2023-04-19T09:35:59;98527.91;;;13.71;100.00
6413;BME280;3239;48.714;9.472;2023-04-19T09:38:26;98522.78;;;13.55;100.00
6413;BME280;3239;48.714;9.472;2023-04-19T09:40:52;98523.56;;;12.83;100.00
6413;BME280;3239;48.714;9.472;2023-04-19T09:43:29;98516.75;;;13.23;100.00
6413;BME280;3239;48.714;9.472;2023-04-19T09:45:55;98517.00;;;12.86;100.00
6413;BME280;3239;48.714;9.472;2023-04-19T09:48:22;98520.88;;;13.16;100.00
6413;BME280;3239;48.714;9.472;2023-04-19T09:50:59;98511.31;;;13.30;100.00
6413;BME280;3239;48.714;9.472;2023-04-19T09:53:28;98513.91;;;13.49;100.00
6413;BME280;3239;48.714;9.472;2023-04-19T09:55:55;98504.84;;;13.82;100.00
6413;BME280;3239;48.714;9.472;2023-04-19T09:58:21;98501.75;;;13.11;100.00
6413;BME280;3239;48.714;9.472;2023-04-19T10:00:48;98503.31;;;13.53;100.00
6413;BME280;3239;48.714;9.472;2023-04-19T10:03:16;98502.22;;;13.56;100.00
6413;BME280;3239;48.714;9.472;2023-04-19T10:05:43;98490.75;;;13.44;100.00
6413;BME280;3239;48.714;9.472;2023-04-19T10:08:11;98510.66;;;13.37;100.00
6413;BME280;3239;48.714;9.472;2023-04-19T10:10:41;98507.03;;;13.42;100.00
6413;BME280;3239;48.714;9.472;2023-04-19T10:13:17;98496.59;;;13.61;100.00
6413;BME280;3239;48.714;9.472;2023-04-19T10:15:44;98505.72;;;13.36;100.00
6413;BME280;3239;48.714;9.472;2023-04-19T10:18:10;98506.16;;;13.60;100.00
6413;BME280;3239;48.714;9.472;2023-04-19T10:20:58;98491.69;;;13.47;100.00
6413;BME280;3239;48.714;9.472;2023-04-19T10:23:26;98495.41;;;13.03;100.00
6413;BME280;3239;48.714;9.472;2023-04-19T10:25:57;98496.88;;;13.50;100.00
6413;BME280;3239;48.714;9.472;2023-04-19T10:28:24;98486.28;;;13.54;100.00
6413;BME280;3239;48.714;9.472;2023-04-19T10:31:03;98488.00;;;13.65;100.00
6413;BME280;3239;48.714;9.472;2023-04-19T10:33:36;98492.59;;;13.83;100.00
6413;BME280;3239;48.714;9.472;2023-04-19T10:36:03;98488.91;;;13.80;100.00
6413;BME280;3239;48.714;9.472;2023-04-19T10:38:49;98483.22;;;13.86;100.00
6413;BME280;3239;48.714;9.472;2023-04-19T10:41:21;98481.38;;;14.09;100.00
6413;BME280;3239;48.714;9.472;2023-04-19T10:48:58;98482.09;;;13.40;100.00
6413;BME280;3239;48.714;9.472;2023-04-19T10:51:33;98481.13;;;13.38;100.00
6413;BME280;3239;48.714;9.472;2023-04-19T10:54:05;98479.25;;;13.33;100.00
6413;BME280;3239;48.714;9.472;2023-04-19T11:01:46;98470.41;;;13.14;100.00
6413;BME280;3239;48.714;9.472;2023-04-19T11:09:34;98448.97;;;13.12;100.00
6413;BME280;3239;48.714;9.472;2023-04-19T11:12:09;98452.41;;;13.26;100.00
6413;BME280;3239;48.714;9.472;2023-04-19T11:14:53;98440.31;;;13.29;100.00
6413;BME280;3239;48.714;9.472;2023-04-19T11:17:23;98443.22;;;13.23;100.00
6413;BME280;3239;48.714;9.472;2023-04-19T11:19:58;98442.47;;;13.23;100.00
6413;BME280;3239;48.714;9.472;2023-04-19T11:27:41;98453.44;;;12.89;100.00
6413;BME280;3239;48.714;9.472;2023-04-19T11:30:19;98443.69;;;12.88;100.00
6413;BME280;3239;48.714;9.472;2023-04-19T11:32:53;98443.19;;;12.77;100.00
6413;BME280;3239;48.714;9.472;2023-04-19T11:35:23;98458.53;;;12.85;100.00
6413;BME280;3239;48.714;9.472;2023-04-19T11:37:51;98463.63;;;12.81;100.00
6413;BME280;3239;48.714;9.472;2023-04-19T11:40:20;98455.50;;;12.50;100.00
6413;BME280;3239;48.714;9.472;2023-04-19T11:42:52;98456.47;;;12.39;100.00
6413;BME280;3239;48.714;9.472;2023-04-19T11:45:30;98464.47;;;12.37;100.00
6413;BME280;3239;48.714;9.472;2023-04-19T11:47:56;98463.44;;;12.14;100.00
6413;BME280;3239;48.714;9.472;2023-04-19T11:50:40;98465.41;;;12.14;100.00
6413;BME280;3239;48.714;9.472;2023-04-19T11:53:15;98476.84;;;12.05;100.00
6413;BME280;3239;48.714;9.472;2023-04-19T11:55:46;98473.53;;;11.80;100.00
6413;BME280;3239;48.714;9.472;2023-04-19T11:58:35;98481.41;;;11.71;100.00
6413;BME280;3239;48.714;9.472;2023-04-19T12:01:20;98487.19;;;11.67;100.00
6413;BME280;3239;48.714;9.472;2023-04-19T12:03:52;98498.72;;;11.47;100.00
6413;BME280;3239;48.714;9.472;2023-04-19T12:06:23;98503.63;;;11.36;100.00
6413;BME280;3239;48.714;9.472;2023-04-19T12:08:51;98514.22;;;11.45;100.00
6413;BME280;3239;48.714;9.472;2023-04-19T12:11:23;98515.78;;;11.40;100.00
6413;BME280;3239;48.714;9.472;2023-04-19T12:14:11;98538.91;;;11.26;100.00
6413;BME280;3239;48.714;9.472;2023-04-19T12:16:37;98555.75;;;11.17;100.00
6413;BME280;3239;48.714;9.472;2023-04-19T12:19:15;98569.16;;;11.39;100.00
6413;BME280;3239;48.714;9.472;2023-04-19T12:21:45;98569.78;;;11.32;100.00
6413;BME280;3239;48.714;9.472;2023-04-19T12:24:14;98578.25;;;10.92;100.00
6413;BME280;3239;48.714;9.472;2023-04-19T12:26:56;98599.44;;;10.91;100.00
6413;BME280;3239;48.714;9.472;2023-04-19T12:29:22;98601.13;;;10.94;100.00
6413;BME280;3239;48.714;9.472;2023-04-19T12:31:48;98616.50;;;11.03;100.00
6413;BME280;3239;48.714;9.472;2023-04-19T12:34:14;98625.72;;;10.81;100.00
6413;BME280;3239;48.714;9.472;2023-04-19T12:36:39;98631.59;;;10.91;100.00
6413;BME280;3239;48.714;9.472;2023-04-19T12:39:05;98632.22;;;10.78;100.00
6413;BME280;3239;48.714;9.472;2023-04-19T12:41:31;98629.53;;;10.73;100.00
6413;BME280;3239;48.714;9.472;2023-04-19T12:43:57;98635.50;;;10.77;100.00
6413;BME280;3239;48.714;9.472;2023-04-19T12:46:23;98634.78;;;10.71;100.00
6413;BME280;3239;48.714;9.472;2023-04-19T12:48:48;98632.56;;;10.69;100.00
6413;BME280;3239;48.714;9.472;2023-04-19T12:51:14;98622.16;;;10.62;100.00
6413;BME280;3239;48.714;9.472;2023-04-19T12:53:49;98626.00;;;10.78;100.00
6413;BME280;3239;48.714;9.472;2023-04-19T12:56:17;98620.53;;;10.78;100.00
6413;BME280;3239;48.714;9.472;2023-04-19T12:58:43;98618.13;;;10.69;100.00
6413;BME280;3239;48.714;9.472;2023-04-19T13:01:10;98618.34;;;10.71;100.00
6413;BME280;3239;48.714;9.472;2023-04-19T13:03:35;98619.78;;;10.77;100.00
6413;BME280;3239;48.714;9.472;2023-04-19T13:06:03;98621.06;;;10.71;100.00
6413;BME280;3239;48.714;9.472;2023-04-19T13:08:29;98619.84;;;10.72;100.00
6413;BME280;3239;48.714;9.472;2023-04-19T13:10:54;98630.50;;;10.75;100.00
6413;BME280;3239;48.714;9.472;2023-04-19T13:13:21;98618.50;;;10.78;100.00
6413;BME280;3239;48.714;9.472;2023-04-19T13:15:46;98607.56;;;10.54;100.00
6413;BME280;3239;48.714;9.472;2023-04-19T13:18:12;98603.44;;;10.13;100.00
6413;BME280;3239;48.714;9.472;2023-04-19T13:20:38;98611.13;;;10.14;100.00
6413;BME280;3239;48.714;9.472;2023-04-19T13:23:04;98614.66;;;10.09;100.00
6413;BME280;3239;48.714;9.472;2023-04-19T13:25:29;98615.69;;;10.06;100.00
6413;BME280;3239;48.714;9.472;2023-04-19T13:27:55;98614.00;;;9.98;100.00
6413;BME280;3239;48.714;9.472;2023-04-19T13:30:21;98606.09;;;9.89;100.00
6413;BME280;3239;48.714;9.472;2023-04-19T13:32:46;98599.63;;;9.86;100.00
6413;BME280;3239;48.714;9.472;2023-04-19T13:35:12;98606.03;;;9.94;100.00
6413;BME280;3239;48.714;9.472;2023-04-19T13:37:38;98604.81;;;9.95;100.00
6413;BME280;3239;48.714;9.472;2023-04-19T13:40:06;98597.88;;;9.89;100.00